Overview Statistics Trail Chart Weather Telemetry Raw packets
 

This is the latest recevied weather packets stored in our database for station/object OK1TBM-13. If no packets are shown the sender has not sent any weather packets the latest 10 day(s).

<< 54 55 56 57 58 59 60 >>
Time Temp. Humidity Pressure Rain* Wind** Luminosity Snow
1788159001 19.44° C 79% 1012.2 hPa 0 mm - 68 W/m² -
1788158701 19.44° C 78% 1012.2 hPa 0 mm - 57 W/m² -
1788158400 19.44° C 76% 1012.5 hPa 0 mm - 66 W/m² -
1788158100 18.89° C 79% 1012.5 hPa 0 mm - 66 W/m² -
1788157800 18.33° C 83% 1012.5 hPa 0 mm - 62 W/m² -
1788157500 18.89° C 84% 1012.5 hPa 0 mm - 66 W/m² -
1788157202 18.89° C 83% 1012.5 hPa 0 mm - 55 W/m² -
1788156901 19.44° C 81% 1012.2 hPa 0 mm - 68 W/m² -
1788156601 19.44° C 80% 1012.2 hPa 0 mm - 70 W/m² -
1788156301 19.44° C 79% 1012.2 hPa 0 mm - 109 W/m² -
1788156008 18.89° C 82% 1012.5 hPa 0 mm - 171 W/m² -
1788155701 18.33° C 83% 1012.5 hPa 0 mm - 136 W/m² -
1788155401 17.78° C 84% 1012.2 hPa 0 mm - 158 W/m² -
1788155102 17.78° C 85% 1012.2 hPa 0 mm - 118 W/m² -
1788154801 17.22° C 87% 1012.2 hPa 0 mm - 104 W/m² -
1788154501 17.22° C 87% 1012.2 hPa 0 mm - 93 W/m² -
1788154201 16.67° C 87% 1012.2 hPa 0 mm - 70 W/m² -
1788153901 16.67° C 87% 1012.2 hPa 0 mm - 49 W/m² -
1788153601 16.67° C 88% 1012.2 hPa 0 mm - 43 W/m² -
1788153301 16.67° C 88% 1012.2 hPa 0 mm - 37 W/m² -
1788153001 16.67° C 89% 1012.2 hPa 0 mm - 32 W/m² -
1788152702 16.11° C 91% 1012.2 hPa 0 mm - 23 W/m² -
1788152401 15° C 99% 1012.5 hPa 0 mm - 21 W/m² -
1788152101 15° C 99% 1012.5 hPa 0 mm - 19 W/m² -
1788151802 14.44° C 99% 1012.5 hPa 0 mm - 18 W/m² -

* Rain latest hour (hover to see other rain measurements)
** Current wind speed in m/s (hover to see current wind gust speed)